createdAt,value
2019-04-30T00:00:53.062Z,95504.57
2019-04-30T00:03:32.500Z,95504.56
2019-04-30T00:06:01.942Z,95509.45
2019-04-30T00:08:35.527Z,95500.56
2019-04-30T00:11:02.442Z,95499.51
2019-04-30T00:13:31.649Z,95500.79
2019-04-30T00:16:01.980Z,95497.61
2019-04-30T00:18:35.275Z,95499.81
2019-04-30T00:21:01.497Z,95495.59
2019-04-30T00:23:30.944Z,95493.80
2019-04-30T00:26:06.248Z,95498.00
2019-04-30T00:28:30.637Z,95492.22
2019-04-30T00:30:59.521Z,95490.75
2019-04-30T00:33:28.413Z,95490.84
2019-04-30T00:35:58.061Z,95484.02
2019-04-30T00:38:29.460Z,95489.45
2019-04-30T00:41:01.648Z,95489.71
2019-04-30T00:43:28.175Z,95486.20
2019-04-30T00:45:57.168Z,95481.14
2019-04-30T00:48:29.671Z,95480.66
2019-04-30T00:50:56.591Z,95483.73
2019-04-30T00:53:26.219Z,95480.03
2019-04-30T00:55:57.194Z,95473.67
2019-04-30T00:58:30.205Z,95474.15
2019-04-30T01:01:06.831Z,95473.56
2019-04-30T01:03:32.923Z,95468.97
2019-04-30T01:06:01.815Z,95467.52
2019-04-30T01:08:32.147Z,95460.47
2019-04-30T01:11:06.462Z,95459.76
2019-04-30T01:13:31.662Z,95448.88
2019-04-30T01:16:00.553Z,95452.44
2019-04-30T01:18:32.160Z,95448.03
2019-04-30T01:21:03.071Z,95451.44
2019-04-30T01:23:31.715Z,95447.67
2019-04-30T01:26:01.094Z,95450.97
2019-04-30T01:28:30.427Z,95441.78
2019-04-30T01:31:01.914Z,95441.53
2019-04-30T01:33:34.574Z,95437.45
2019-04-30T01:36:04.085Z,95444.48
2019-04-30T01:38:31.735Z,95446.09
2019-04-30T01:41:00.624Z,95442.40
2019-04-30T01:43:33.136Z,95440.72
2019-04-30T01:46:01.811Z,95440.80
2019-04-30T01:48:30.780Z,95437.52
2019-04-30T01:51:01.096Z,95435.41
2019-04-30T01:53:30.098Z,95437.68
2019-04-30T01:56:12.549Z,95437.20
2019-04-30T01:58:42.934Z,95434.12
2019-04-30T02:01:13.769Z,95439.41
2019-04-30T02:03:42.661Z,95434.23
2019-04-30T02:06:11.697Z,95442.16
2019-04-30T02:08:40.546Z,95439.80
2019-04-30T02:11:10.052Z,95435.66
2019-04-30T02:13:39.267Z,95441.70
2019-04-30T02:16:08.776Z,95437.52
2019-04-30T02:18:39.338Z,95441.83
2019-04-30T02:21:11.470Z,95440.80
2019-04-30T02:23:39.834Z,95436.91
2019-04-30T02:26:08.927Z,95441.14
2019-04-30T02:28:39.362Z,95444.58
2019-04-30T02:31:09.361Z,95441.22
2019-04-30T02:33:40.523Z,95445.19
2019-04-30T02:36:29.830Z,95440.41
2019-04-30T02:39:02.420Z,95434.78
2019-04-30T02:41:31.155Z,95443.20
2019-04-30T02:44:01.067Z,95440.83
2019-04-30T02:46:32.267Z,95442.63
2019-04-30T02:49:03.262Z,95442.28
2019-04-30T02:51:34.996Z,95444.88
2019-04-30T02:54:12.009Z,95444.37
2019-04-30T02:56:42.430Z,95441.63
2019-04-30T02:59:11.931Z,95437.92
2019-04-30T03:01:40.821Z,95444.17
2019-04-30T03:04:10.270Z,95443.25
2019-04-30T03:06:40.850Z,95443.17
2019-04-30T03:09:10.942Z,95445.23
2019-04-30T03:11:40.734Z,95448.80
2019-04-30T03:14:10.880Z,95440.60
2019-04-30T03:17:00.427Z,95440.36
2019-04-30T03:19:33.607Z,95438.38
2019-04-30T03:22:06.788Z,95441.89
2019-04-30T03:24:35.674Z,95433.23
2019-04-30T03:27:04.650Z,95436.25
2019-04-30T03:29:33.543Z,95445.41
2019-04-30T03:32:03.599Z,95439.73
2019-04-30T03:34:33.335Z,95438.09
2019-04-30T03:37:02.469Z,95434.23
2019-04-30T03:39:33.766Z,95434.16
2019-04-30T03:42:01.886Z,95434.86
2019-04-30T03:44:32.426Z,95432.59
2019-04-30T03:47:02.942Z,95436.13
2019-04-30T03:49:31.836Z,95438.84
2019-04-30T03:52:00.735Z,95440.09
2019-04-30T03:54:29.618Z,95432.73
2019-04-30T03:57:00.902Z,95436.63
2019-04-30T03:59:30.418Z,95425.44
2019-04-30T04:02:16.975Z,95431.45
2019-04-30T04:04:52.126Z,95430.31
2019-04-30T04:07:34.519Z,95437.15
2019-04-30T04:10:05.053Z,95441.44
2019-04-30T04:12:33.941Z,95443.31
2019-04-30T04:15:03.920Z,95440.08
2019-04-30T04:17:33.159Z,95439.19
2019-04-30T04:20:02.054Z,95439.73
2019-04-30T04:22:31.071Z,95443.31
2019-04-30T04:25:00.359Z,95444.17
2019-04-30T04:27:30.107Z,95448.62
2019-04-30T04:30:01.194Z,95442.76
2019-04-30T04:32:30.786Z,95440.81
2019-04-30T04:35:00.482Z,95443.16
2019-04-30T04:37:30.374Z,95439.68
2019-04-30T04:39:59.821Z,95442.08
2019-04-30T04:42:32.479Z,95438.14
2019-04-30T04:44:59.749Z,95437.27
2019-04-30T04:47:30.880Z,95435.36
2019-04-30T04:50:01.145Z,95431.50
2019-04-30T04:52:31.609Z,95441.06
2019-04-30T04:55:00.775Z,95443.83
2019-04-30T04:57:30.448Z,95443.83
2019-04-30T05:00:06.913Z,95443.52
2019-04-30T05:02:34.807Z,95436.10
2019-04-30T05:05:03.923Z,95439.98
2019-04-30T05:07:32.790Z,95439.38
2019-04-30T05:10:01.688Z,95443.41
2019-04-30T05:12:30.577Z,95443.22
2019-04-30T05:14:59.923Z,95444.92
2019-04-30T05:17:31.669Z,95450.50
2019-04-30T05:19:59.583Z,95450.50
2019-04-30T05:22:29.413Z,95448.86
2019-04-30T05:24:59.044Z,95449.51
2019-04-30T05:27:28.119Z,95453.18
2019-04-30T05:29:57.008Z,95445.28
2019-04-30T05:32:25.899Z,95448.70
2019-04-30T05:34:54.894Z,95448.12
2019-04-30T05:37:23.783Z,95438.74
2019-04-30T05:39:52.677Z,95444.55
2019-04-30T05:42:21.567Z,95443.87
2019-04-30T05:44:50.459Z,95440.05
2019-04-30T05:47:19.969Z,95441.47
2019-04-30T05:49:49.151Z,95440.03
2019-04-30T05:52:19.889Z,95439.77
2019-04-30T05:54:48.931Z,95436.91
2019-04-30T05:57:19.739Z,95445.91
2019-04-30T05:59:48.944Z,95443.28
2019-04-30T06:02:19.333Z,95445.26
2019-04-30T06:04:49.055Z,95450.09
2019-04-30T06:07:18.944Z,95452.53
2019-04-30T06:09:56.780Z,95451.42
2019-04-30T06:12:30.179Z,95447.59
2019-04-30T06:15:11.835Z,95453.05
2019-04-30T06:17:41.807Z,95452.03
2019-04-30T06:20:18.393Z,95457.75
2019-04-30T06:22:42.615Z,95460.80
2019-04-30T06:25:12.352Z,95458.84
2019-04-30T06:27:41.343Z,95462.03
2019-04-30T06:30:12.145Z,95457.75
2019-04-30T06:32:41.175Z,95448.41
2019-04-30T06:35:12.489Z,95450.79
2019-04-30T06:37:41.415Z,95442.99
2019-04-30T06:40:11.891Z,95450.11
2019-04-30T06:42:41.041Z,95445.30
2019-04-30T06:45:10.454Z,95446.37
2019-04-30T06:47:39.941Z,95443.66
2019-04-30T06:50:09.965Z,95437.47
2019-04-30T06:52:39.133Z,95442.18
2019-04-30T06:55:09.443Z,95429.91
2019-04-30T06:57:38.529Z,95436.30
2019-04-30T07:00:09.863Z,95433.13
2019-04-30T07:02:39.367Z,95427.93
2019-04-30T07:05:10.226Z,95424.02
2019-04-30T07:07:41.804Z,95421.25
2019-04-30T07:10:16.869Z,95420.37
2019-04-30T07:12:50.854Z,95422.96
2019-04-30T07:15:19.814Z,95418.31
2019-04-30T07:17:49.182Z,95416.08
2019-04-30T07:20:19.176Z,95412.20
2019-04-30T07:22:53.402Z,95419.04
2019-04-30T07:25:19.541Z,95414.89
2019-04-30T07:27:50.596Z,95406.94
2019-04-30T07:30:19.385Z,95408.59
2019-04-30T07:32:48.772Z,95402.55
2019-04-30T07:35:19.613Z,95403.08
2019-04-30T07:37:49.777Z,95409.64
2019-04-30T07:40:19.171Z,95413.30
2019-04-30T07:42:49.301Z,95413.30
2019-04-30T07:45:19.488Z,95408.72
2019-04-30T07:47:49.467Z,95411.05
2019-04-30T07:50:21.504Z,95411.05
2019-04-30T07:53:01.604Z,95412.35
2019-04-30T07:55:19.941Z,95398.37
2019-04-30T07:57:50.647Z,95408.38
2019-04-30T08:00:19.571Z,95414.77
2019-04-30T08:02:52.964Z,95410.02
2019-04-30T08:05:32.198Z,95407.66
2019-04-30T08:08:16.231Z,95410.08
2019-04-30T08:10:31.616Z,95415.76
2019-04-30T08:13:08.562Z,95404.66
2019-04-30T08:15:31.140Z,95408.14
2019-04-30T08:18:03.552Z,95412.16
2019-04-30T08:20:30.564Z,95404.49
2019-04-30T08:23:12.997Z,95415.25
2019-04-30T08:25:30.088Z,95419.18
2019-04-30T08:27:59.198Z,95415.33
2019-04-30T08:30:29.984Z,95408.45
2019-04-30T08:32:59.551Z,95409.00
2019-04-30T08:35:29.667Z,95417.14
2019-04-30T08:37:59.109Z,95420.16
2019-04-30T08:40:29.723Z,95416.03
2019-04-30T08:42:59.483Z,95410.27
2019-04-30T08:45:31.439Z,95409.97
2019-04-30T08:47:59.221Z,95405.50
2019-04-30T08:50:29.687Z,95396.19
2019-04-30T08:52:59.731Z,95399.25
2019-04-30T08:55:30.383Z,95401.72
2019-04-30T08:58:09.280Z,95402.66
2019-04-30T09:00:30.617Z,95398.80
2019-04-30T09:02:59.537Z,95403.60
2019-04-30T09:05:30.595Z,95406.20
2019-04-30T09:07:59.916Z,95403.88
2019-04-30T09:10:29.448Z,95409.33
2019-04-30T09:12:59.798Z,95412.14
2019-04-30T09:15:29.137Z,95407.81
2019-04-30T09:18:03.798Z,95407.23
2019-04-30T09:20:29.140Z,95404.30
2019-04-30T09:22:59.575Z,95395.34
2019-04-30T09:25:28.840Z,95394.70
2019-04-30T09:27:58.844Z,95404.03
2019-04-30T09:30:29.703Z,95392.41
2019-04-30T09:32:59.484Z,95399.36
2019-04-30T09:35:31.867Z,95397.54
2019-04-30T09:38:01.850Z,95397.89
2019-04-30T09:40:32.281Z,95404.32
2019-04-30T09:43:00.524Z,95405.45
2019-04-30T09:45:29.623Z,95409.45
2019-04-30T09:47:59.212Z,95406.36
2019-04-30T09:50:28.952Z,95397.97
2019-04-30T09:53:00.329Z,95406.71
2019-04-30T09:55:29.173Z,95405.56
2019-04-30T09:57:58.876Z,95404.45
2019-04-30T10:00:29.451Z,95408.42
2019-04-30T10:02:59.780Z,95398.73
2019-04-30T10:05:29.443Z,95392.50
2019-04-30T10:07:59.354Z,95394.61
2019-04-30T10:10:30.308Z,95401.34
2019-04-30T10:12:59.392Z,95397.11
2019-04-30T10:15:32.803Z,95403.65
2019-04-30T10:18:01.694Z,95399.86
2019-04-30T10:20:44.641Z,95391.99
2019-04-30T10:23:15.990Z,95387.15
2019-04-30T10:25:44.853Z,95386.80
2019-04-30T10:28:13.743Z,95396.55
2019-04-30T10:30:42.636Z,95394.52
2019-04-30T10:33:11.936Z,95393.51
2019-04-30T10:35:40.829Z,95391.81
2019-04-30T10:38:10.231Z,95395.92
2019-04-30T10:40:39.252Z,95395.77
2019-04-30T10:43:09.127Z,95390.52
2019-04-30T10:45:38.966Z,95390.58
2019-04-30T10:48:08.488Z,95387.09
2019-04-30T10:50:40.734Z,95385.53
2019-04-30T10:53:09.256Z,95389.98
2019-04-30T10:55:39.739Z,95383.25
2019-04-30T10:58:09.142Z,95379.03
2019-04-30T11:00:40.578Z,95384.47
2019-04-30T11:03:19.178Z,95382.19
2019-04-30T11:05:41.431Z,95377.16
2019-04-30T11:08:11.673Z,95373.23
2019-04-30T11:10:41.996Z,95371.36
2019-04-30T11:13:12.013Z,95378.56
2019-04-30T11:15:41.111Z,95377.73
2019-04-30T11:18:11.178Z,95371.65
2019-04-30T11:20:42.088Z,95367.28
2019-04-30T11:23:14.754Z,95364.70
2019-04-30T11:25:42.730Z,95363.50
2019-04-30T11:28:12.582Z,95371.08
2019-04-30T11:30:42.017Z,95361.55
2019-04-30T11:33:12.493Z,95365.65
2019-04-30T11:35:41.660Z,95353.97
2019-04-30T11:38:11.265Z,95368.63
2019-04-30T11:40:40.238Z,95359.64
2019-04-30T11:43:09.488Z,95358.95
2019-04-30T11:45:56.371Z,95359.94
2019-04-30T11:48:25.368Z,95356.34
2019-04-30T11:50:54.363Z,95361.23
2019-04-30T11:53:27.882Z,95354.36
2019-04-30T11:55:55.524Z,95351.25
2019-04-30T11:58:24.412Z,95348.47
2019-04-30T12:00:53.410Z,95347.39
2019-04-30T12:03:23.936Z,95355.95
2019-04-30T12:05:52.827Z,95352.10
2019-04-30T12:08:23.254Z,95343.98
2019-04-30T12:10:56.549Z,95342.97
2019-04-30T12:13:30.047Z,95347.08
2019-04-30T12:15:59.347Z,95341.44
2019-04-30T12:18:28.344Z,95340.75
2019-04-30T12:20:57.239Z,95344.44
2019-04-30T12:23:26.432Z,95342.45
2019-04-30T12:25:55.325Z,95346.39
2019-04-30T12:28:24.218Z,95335.88
2019-04-30T12:30:53.105Z,95350.22
2019-04-30T12:33:21.996Z,95345.77
2019-04-30T12:35:51.312Z,95350.20
2019-04-30T12:38:20.290Z,95343.55
2019-04-30T12:40:49.289Z,95337.45
2019-04-30T12:43:18.275Z,95343.50
2019-04-30T12:45:50.227Z,95338.09
2019-04-30T12:48:22.713Z,95344.42
2019-04-30T12:51:09.188Z,95348.92
2019-04-30T12:53:57.566Z,95350.36
2019-04-30T12:56:27.992Z,95350.95
2019-04-30T12:58:56.888Z,95335.33
2019-04-30T13:01:25.885Z,95333.00
2019-04-30T13:03:58.668Z,95339.60
2019-04-30T13:06:25.947Z,95345.09
2019-04-30T13:08:55.769Z,95343.11
2019-04-30T13:11:25.536Z,95340.89
2019-04-30T13:13:55.280Z,95332.48
2019-04-30T13:16:24.654Z,95334.26
2019-04-30T13:18:53.546Z,95330.65
2019-04-30T13:21:22.535Z,95320.72
2019-04-30T13:23:51.431Z,95327.29
2019-04-30T13:26:21.828Z,95335.41
2019-04-30T13:28:52.281Z,95324.36
2019-04-30T13:31:21.176Z,95320.59
2019-04-30T13:33:52.605Z,95322.06
2019-04-30T13:36:22.026Z,95328.70
2019-04-30T13:38:52.600Z,95312.74
2019-04-30T13:41:22.982Z,95316.49
2019-04-30T13:43:58.635Z,95311.03
2019-04-30T13:46:28.508Z,95310.16
2019-04-30T13:48:57.443Z,95309.30
2019-04-30T13:51:26.333Z,95311.16
2019-04-30T13:53:55.224Z,95313.79
2019-04-30T13:56:24.112Z,95302.53
2019-04-30T13:58:53.112Z,95299.59
2019-04-30T14:01:21.997Z,95303.16
2019-04-30T14:04:01.743Z,95299.76
2019-04-30T14:06:41.283Z,95288.75
2019-04-30T14:09:12.133Z,95300.81
2019-04-30T14:11:42.528Z,95290.24
2019-04-30T14:14:12.156Z,95283.76
2019-04-30T14:16:43.731Z,95280.53
2019-04-30T14:19:12.599Z,95271.88
2019-04-30T14:21:41.611Z,95279.23
2019-04-30T14:24:11.509Z,95278.59
2019-04-30T14:26:40.500Z,95262.08
2019-04-30T14:29:09.905Z,95268.86
2019-04-30T14:31:38.921Z,95252.00
2019-04-30T14:34:10.038Z,95252.00
2019-04-30T14:36:39.236Z,95257.98
2019-04-30T14:39:14.557Z,95263.52
2019-04-30T14:41:41.244Z,95264.04
2019-04-30T14:44:13.424Z,95258.71
2019-04-30T14:46:44.495Z,95265.78
2019-04-30T14:49:16.441Z,95257.34
2019-04-30T14:51:45.901Z,95255.53
2019-04-30T14:54:25.442Z,95261.33
2019-04-30T14:57:12.313Z,95251.53
2019-04-30T14:59:42.705Z,95260.07
2019-04-30T15:02:17.000Z,95255.20
2019-04-30T15:04:45.887Z,95248.67
2019-04-30T15:07:14.780Z,95246.33
2019-04-30T15:09:43.670Z,95246.05
2019-04-30T15:12:13.996Z,95250.55
2019-04-30T15:14:42.890Z,95248.45
2019-04-30T15:17:12.087Z,95242.12
2019-04-30T15:19:40.981Z,95249.52
2019-04-30T15:22:10.382Z,95238.34
2019-04-30T15:24:40.602Z,95238.41
2019-04-30T15:27:10.519Z,95241.53
2019-04-30T15:29:39.410Z,95240.88
2019-04-30T15:32:11.067Z,95253.34
2019-04-30T15:34:42.430Z,95242.63
2019-04-30T15:37:19.098Z,95246.86
2019-04-30T15:39:43.062Z,95232.59
2019-04-30T15:42:12.568Z,95230.45
2019-04-30T15:44:45.327Z,95225.62
2019-04-30T15:47:12.707Z,95222.81
2019-04-30T15:49:41.600Z,95232.87
2019-04-30T15:52:11.185Z,95223.58
2019-04-30T15:54:39.996Z,95221.50
2019-04-30T15:57:09.397Z,95218.57
2019-04-30T15:59:41.592Z,95218.83
2019-04-30T16:02:18.882Z,95227.28
2019-04-30T16:05:05.460Z,95226.53
2019-04-30T16:07:35.887Z,95223.08
2019-04-30T16:10:18.668Z,95215.14
2019-04-30T16:12:49.257Z,95214.39
2019-04-30T16:15:19.044Z,95213.61
2019-04-30T16:17:49.483Z,95209.59
2019-04-30T16:20:18.365Z,95210.95
2019-04-30T16:22:49.249Z,95212.44
2019-04-30T16:25:19.389Z,95212.44
2019-04-30T16:27:48.724Z,95214.38
2019-04-30T16:30:19.581Z,95218.27
2019-04-30T16:32:50.655Z,95212.20
2019-04-30T16:35:19.723Z,95215.07
2019-04-30T16:37:49.610Z,95213.59
2019-04-30T16:40:19.080Z,95217.19
2019-04-30T16:42:49.654Z,95219.39
2019-04-30T16:45:19.476Z,95210.64
2019-04-30T16:47:48.460Z,95214.30
2019-04-30T16:50:18.832Z,95209.27
2019-04-30T16:52:49.873Z,95216.63
2019-04-30T16:55:18.923Z,95206.86
2019-04-30T16:57:49.665Z,95209.66
2019-04-30T17:00:20.151Z,95214.09
2019-04-30T17:02:50.610Z,95215.07
2019-04-30T17:05:39.486Z,95214.37
2019-04-30T17:08:10.099Z,95217.83
2019-04-30T17:10:40.528Z,95215.16
2019-04-30T17:13:23.551Z,95217.55
2019-04-30T17:15:57.050Z,95214.05
2019-04-30T17:18:38.710Z,95216.23
2019-04-30T17:21:09.872Z,95211.67
2019-04-30T17:23:40.619Z,95213.07
2019-04-30T17:26:09.932Z,95212.28
2019-04-30T17:28:38.812Z,95209.21
2019-04-30T17:31:09.732Z,95205.88
2019-04-30T17:33:38.603Z,95198.22
2019-04-30T17:36:08.349Z,95205.69
2019-04-30T17:38:38.778Z,95207.75
2019-04-30T17:41:08.824Z,95204.62
2019-04-30T17:43:39.417Z,95210.95
2019-04-30T17:46:08.628Z,95203.27
2019-04-30T17:48:39.296Z,95199.56
2019-04-30T17:51:09.547Z,95205.90
2019-04-30T17:53:40.013Z,95204.09
2019-04-30T17:56:09.414Z,95200.33
2019-04-30T17:58:38.413Z,95203.50
2019-04-30T18:01:09.308Z,95205.38
2019-04-30T18:03:38.796Z,95210.68
2019-04-30T18:06:09.059Z,95214.13
2019-04-30T18:08:37.863Z,95207.72
2019-04-30T18:11:06.868Z,95213.22
2019-04-30T18:13:35.751Z,95218.28
2019-04-30T18:16:04.748Z,95219.80
2019-04-30T18:18:35.173Z,95220.35
2019-04-30T18:21:21.983Z,95220.55
2019-04-30T18:23:54.381Z,95222.94
2019-04-30T18:26:22.940Z,95220.08
2019-04-30T18:28:51.855Z,95219.98
2019-04-30T18:31:20.725Z,95223.62
2019-04-30T18:33:51.418Z,95219.44
2019-04-30T18:36:20.348Z,95225.78
2019-04-30T18:38:50.272Z,95229.13
2019-04-30T18:41:19.451Z,95226.27
2019-04-30T18:43:48.792Z,95233.70
2019-04-30T18:46:19.158Z,95234.53
2019-04-30T18:48:52.587Z,95235.92
2019-04-30T18:51:35.943Z,95236.83
2019-04-30T18:53:51.494Z,95239.13
2019-04-30T18:56:20.330Z,95236.41
2019-04-30T18:58:49.283Z,95230.70
2019-04-30T19:01:18.178Z,95239.48
2019-04-30T19:03:49.137Z,95237.20
2019-04-30T19:06:25.738Z,95246.98
2019-04-30T19:08:56.002Z,95239.11
2019-04-30T19:11:28.760Z,95239.16
2019-04-30T19:14:15.032Z,95244.30
2019-04-30T19:16:51.347Z,95241.12
2019-04-30T19:19:29.554Z,95244.98
2019-04-30T19:21:58.691Z,95249.52
2019-04-30T19:24:27.542Z,95249.34
2019-04-30T19:26:56.434Z,95253.90
2019-04-30T19:29:25.324Z,95252.81
2019-04-30T19:31:54.219Z,95262.23
2019-04-30T19:34:23.208Z,95258.59
2019-04-30T19:36:52.101Z,95265.53
2019-04-30T19:39:21.608Z,95274.52
2019-04-30T19:41:50.497Z,95276.10
2019-04-30T19:44:21.089Z,95278.08
2019-04-30T19:46:50.020Z,95275.91
2019-04-30T19:49:19.262Z,95279.87
2019-04-30T19:51:49.510Z,95283.22
2019-04-30T19:54:19.246Z,95286.97
2019-04-30T19:56:50.148Z,95284.58
2019-04-30T19:59:19.331Z,95291.13
2019-04-30T20:01:48.823Z,95300.39
2019-04-30T20:04:18.575Z,95299.83
2019-04-30T20:06:48.778Z,95308.94
2019-04-30T20:09:19.423Z,95313.97
2019-04-30T20:11:49.254Z,95312.89
2019-04-30T20:14:18.715Z,95307.27
2019-04-30T20:16:48.657Z,95302.80
2019-04-30T20:19:17.689Z,95312.51
2019-04-30T20:21:51.363Z,95297.56
2019-04-30T20:24:19.086Z,95297.56
2019-04-30T20:26:50.226Z,95307.22
2019-04-30T20:29:18.988Z,95299.05
2019-04-30T20:31:48.765Z,95299.05
2019-04-30T20:34:19.182Z,95296.56
2019-04-30T20:36:48.224Z,95298.03
2019-04-30T20:39:18.608Z,95297.68
2019-04-30T20:41:49.589Z,95293.30
2019-04-30T20:44:18.990Z,95291.55
2019-04-30T20:46:49.110Z,95289.70
2019-04-30T20:49:19.200Z,95296.71
2019-04-30T20:51:55.252Z,95293.02
2019-04-30T20:54:19.041Z,95298.52
2019-04-30T20:56:48.362Z,95294.95
2019-04-30T20:59:19.097Z,95289.02
2019-04-30T21:01:49.008Z,95291.52
2019-04-30T21:04:20.568Z,95296.66
2019-04-30T21:06:49.649Z,95286.88
2019-04-30T21:09:18.652Z,95301.31
2019-04-30T21:11:48.992Z,95299.34
2019-04-30T21:14:19.242Z,95296.39
2019-04-30T21:16:48.707Z,95293.02
2019-04-30T21:19:19.237Z,95289.91
2019-04-30T21:21:49.737Z,95288.89
2019-04-30T21:24:18.603Z,95289.42
2019-04-30T21:26:47.546Z,95290.39
2019-04-30T21:29:16.442Z,95287.56
2019-04-30T21:31:49.280Z,95284.16
2019-04-30T21:34:29.351Z,95287.11
2019-04-30T21:36:59.663Z,95288.72
2019-04-30T21:39:28.705Z,95286.98
2019-04-30T21:41:59.331Z,95286.70
2019-04-30T21:44:28.320Z,95289.16
2019-04-30T21:46:57.216Z,95286.18
2019-04-30T21:49:26.104Z,95283.58
2019-04-30T21:51:54.998Z,95284.55
2019-04-30T21:54:23.886Z,95287.16
2019-04-30T21:56:52.777Z,95281.42
2019-04-30T21:59:24.525Z,95288.06
2019-04-30T22:01:52.300Z,95281.23
2019-04-30T22:04:21.293Z,95296.27
2019-04-30T22:06:50.187Z,95289.11
2019-04-30T22:09:19.688Z,95293.48
2019-04-30T22:11:49.383Z,95297.49
2019-04-30T22:14:18.558Z,95295.84
2019-04-30T22:16:49.334Z,95298.83
2019-04-30T22:19:19.556Z,95293.98
2019-04-30T22:21:49.569Z,95296.30
2019-04-30T22:24:18.589Z,95289.62
2019-04-30T22:26:47.456Z,95292.88
2019-04-30T22:29:16.358Z,95296.78
2019-04-30T22:31:45.342Z,95295.50
2019-04-30T22:34:14.338Z,95294.02
2019-04-30T22:36:44.897Z,95291.56
2019-04-30T22:39:19.989Z,95299.27
2019-04-30T22:41:49.201Z,95292.95
2019-04-30T22:44:18.094Z,95293.75
2019-04-30T22:46:46.983Z,95293.16
2019-04-30T22:49:15.876Z,95292.09
2019-04-30T22:51:44.764Z,95290.86
2019-04-30T22:54:13.655Z,95291.21
2019-04-30T22:56:42.547Z,95291.58
2019-04-30T22:59:12.256Z,95289.41
2019-04-30T23:01:46.092Z,95288.55
2019-04-30T23:04:16.593Z,95295.91
2019-04-30T23:06:45.484Z,95293.45
2019-04-30T23:09:16.056Z,95286.34
2019-04-30T23:11:44.909Z,95290.41
2019-04-30T23:14:13.796Z,95290.41
2019-04-30T23:16:42.691Z,95295.27
2019-04-30T23:19:12.500Z,95291.64
2019-04-30T23:21:41.494Z,95289.86
2019-04-30T23:24:11.103Z,95294.27
2019-04-30T23:26:39.992Z,95294.03
2019-04-30T23:29:09.601Z,95294.32
2019-04-30T23:31:38.489Z,95291.16
2019-04-30T23:34:17.739Z,95290.00
2019-04-30T23:36:38.529Z,95286.52
2019-04-30T23:39:10.277Z,95287.55
2019-04-30T23:41:39.177Z,95289.13
2019-04-30T23:44:09.096Z,95289.27
2019-04-30T23:46:37.986Z,95289.39
2019-04-30T23:49:06.977Z,95289.61
2019-04-30T23:51:35.973Z,95293.23
2019-04-30T23:54:04.966Z,95291.71
2019-04-30T23:56:33.855Z,95298.58
2019-04-30T23:59:02.746Z,95290.91
